Time;durP1;ratioP1;P1;durP2;ratioP2;P2;SDS_P1;SDS_P2;PMS_P1;PMS_P2;Temp;Humidity;BMP_temperature;BMP_pressure;BME280_temperature;BME280_humidity;BME280_pressure;Samples;Min_cycle;Max_cycle;Signal;HPM_P1;HPM_P2
2020/12/24 00:01:08;;;;;;;0.10;0.10;;;12.70;99.90;;;;;;4131779;28;20056;-88
2020/12/24 00:03:09;;;;;;;0.13;0.10;;;12.80;99.90;;;;;;4168768;28;20051;-89
2020/12/24 00:05:12;;;;;;;0.32;0.20;;;12.70;99.90;;;;;;4129834;28;20054;-87
2020/12/24 00:07:14;;;;;;;0.10;0.10;;;12.60;99.90;;;;;;4147973;28;20049;-88
2020/12/24 00:09:15;;;;;;;0.10;0.10;;;12.50;99.90;;;;;;4145256;28;20162;-89
2020/12/24 00:11:17;;;;;;;0.10;0.10;;;12.40;99.90;;;;;;4170383;28;20433;-87
2020/12/24 00:13:18;;;;;;;0.10;0.10;;;12.40;99.20;;;;;;4163831;28;20136;-88
2020/12/24 00:15:19;;;;;;;0.10;0.10;;;12.40;99.50;;;;;;4129465;28;20511;-87
2020/12/24 00:17:20;;;;;;;0.10;0.10;;;12.30;99.90;;;;;;4158517;28;20132;-87
2020/12/24 00:19:22;;;;;;;0.10;0.10;;;12.30;99.80;;;;;;4132711;28;20054;-88
2020/12/24 00:21:23;;;;;;;0.00;0.00;;;12.30;99.60;;;;;;4149407;28;20060;-88
2020/12/24 00:23:24;;;;;;;0.10;0.10;;;12.20;99.70;;;;;;4130242;28;20514;-87
2020/12/24 00:25:25;;;;;;;0.10;0.10;;;12.20;99.80;;;;;;4129027;28;20050;-88
2020/12/24 00:27:27;;;;;;;0.10;0.10;;;12.20;99.90;;;;;;4154962;28;20053;-88
2020/12/24 00:29:28;;;;;;;0.10;0.10;;;12.20;99.90;;;;;;4169353;28;20537;-89
2020/12/24 00:31:29;;;;;;;0.10;0.10;;;12.20;99.90;;;;;;4131438;28;20525;-88
2020/12/24 00:33:30;;;;;;;0.10;0.10;;;12.10;99.90;;;;;;4151818;28;20654;-88
2020/12/24 00:35:32;;;;;;;0.10;0.10;;;12.10;99.90;;;;;;4138158;28;20061;-88
2020/12/24 00:37:33;;;;;;;0.80;0.73;;;12.00;99.90;;;;;;4130670;28;20058;-88
2020/12/24 00:39:34;;;;;;;0.17;0.10;;;12.00;99.90;;;;;;4139541;28;20097;-88
2020/12/24 00:41:35;;;;;;;0.57;0.20;;;11.90;99.90;;;;;;4132219;28;20138;-88
2020/12/24 00:43:37;;;;;;;0.10;0.10;;;11.90;99.90;;;;;;4129734;28;20050;-88
2020/12/24 00:45:38;;;;;;;0.13;0.13;;;11.90;99.90;;;;;;4154764;28;20599;-88
2020/12/24 00:47:40;;;;;;;0.25;0.25;;;11.80;99.90;;;;;;4147053;28;20073;-87
2020/12/24 00:49:41;;;;;;;0.10;0.10;;;11.80;99.90;;;;;;4145948;28;20199;-87
2020/12/24 00:51:42;;;;;;;0.10;0.10;;;11.70;99.90;;;;;;4129237;28;20054;-89
2020/12/24 00:53:44;;;;;;;0.40;0.40;;;11.80;99.90;;;;;;4142398;28;20564;-88
2020/12/24 00:55:45;;;;;;;2.83;0.20;;;11.80;99.90;;;;;;4129388;28;20042;-87
2020/12/24 00:57:46;;;;;;;0.10;0.10;;;11.80;99.90;;;;;;4126553;28;20129;-87
2020/12/24 00:59:47;;;;;;;0.10;0.10;;;11.70;99.90;;;;;;4169481;28;20888;-87
2020/12/24 01:01:49;;;;;;;0.10;0.10;;;11.70;99.90;;;;;;4147609;28;20054;-86
2020/12/24 01:03:50;;;;;;;0.20;0.10;;;11.70;99.90;;;;;;4132609;28;20056;-87
2020/12/24 01:05:51;;;;;;;0.10;0.10;;;11.70;99.90;;;;;;4189899;28;20064;-88
2020/12/24 01:07:53;;;;;;;0.10;0.10;;;11.60;99.90;;;;;;4132804;28;20046;-89
2020/12/24 01:09:54;;;;;;;0.10;0.10;;;11.60;99.90;;;;;;4133131;28;20054;-87
2020/12/24 01:11:55;;;;;;;1.85;0.20;;;11.50;99.90;;;;;;4133577;28;20055;-89
2020/12/24 01:13:56;;;;;;;0.10;0.10;;;11.60;99.90;;;;;;4134101;28;20157;-87
2020/12/24 01:15:58;;;;;;;0.10;0.10;;;11.60;99.90;;;;;;4141950;28;20072;-88
2020/12/24 01:17:59;;;;;;;0.10;0.10;;;11.50;99.90;;;;;;4153359;28;20077;-87
2020/12/24 01:20:00;;;;;;;0.90;0.35;;;11.60;99.90;;;;;;4177591;28;20493;-88
2020/12/24 01:22:05;;;;;;;0.10;0.10;;;11.60;99.90;;;;;;4136357;28;20065;-87
2020/12/24 01:24:06;;;;;;;1.75;0.38;;;11.50;99.90;;;;;;4147761;28;20633;-88
2020/12/24 01:26:07;;;;;;;0.10;0.10;;;11.50;99.90;;;;;;4149161;28;20403;-88
2020/12/24 01:28:09;;;;;;;2.45;0.20;;;11.50;99.90;;;;;;4144663;28;20057;-87
2020/12/24 01:30:10;;;;;;;0.52;0.30;;;11.50;99.90;;;;;;4136831;28;20188;-87
2020/12/24 01:32:12;;;;;;;0.30;0.20;;;11.50;99.90;;;;;;4162830;28;20056;-88
2020/12/24 01:34:13;;;;;;;0.10;0.10;;;11.50;99.90;;;;;;4147311;28;20075;-87
2020/12/24 01:36:20;;;;;;;0.10;0.10;;;11.50;99.90;;;;;;4164059;28;20059;-88
2020/12/24 01:38:22;;;;;;;0.20;0.13;;;11.40;99.90;;;;;;4147630;28;20128;-86
2020/12/24 01:40:23;;;;;;;0.10;0.10;;;11.40;99.90;;;;;;4132192;28;20074;-88
2020/12/24 01:42:24;;;;;;;0.47;0.20;;;11.40;99.90;;;;;;4131821;28;20051;-87
2020/12/24 01:44:25;;;;;;;0.10;0.10;;;11.40;99.90;;;;;;4164808;28;20124;-88
2020/12/24 01:46:27;;;;;;;0.15;0.10;;;11.40;99.90;;;;;;4130630;28;20053;-87
2020/12/24 01:48:28;;;;;;;0.22;0.13;;;11.40;99.90;;;;;;4161974;28;20057;-88
2020/12/24 01:50:29;;;;;;;0.22;0.10;;;11.30;99.90;;;;;;4155555;28;20045;-88
2020/12/24 01:52:37;;;;;;;0.10;0.10;;;11.40;99.90;;;;;;4134655;28;20065;-87
2020/12/24 01:54:39;;;;;;;0.10;0.10;;;11.30;99.90;;;;;;4132189;28;20058;-86
2020/12/24 01:56:40;;;;;;;0.13;0.13;;;11.30;99.90;;;;;;4148767;28;20061;-87
2020/12/24 01:58:41;;;;;;;0.10;0.10;;;11.30;99.90;;;;;;4132624;28;20065;-87
2020/12/24 02:00:46;;;;;;;0.15;0.15;;;11.30;99.90;;;;;;4150632;28;20042;-87
2020/12/24 02:02:47;;;;;;;1.75;0.28;;;11.30;99.90;;;;;;4164687;28;20041;-87
2020/12/24 02:04:48;;;;;;;0.20;0.20;;;11.30;99.90;;;;;;4145730;28;20053;-87
2020/12/24 02:06:50;;;;;;;0.13;0.13;;;11.40;96.30;;;;;;4165239;28;20045;-87
2020/12/24 02:08:53;;;;;;;0.10;0.10;;;11.30;97.30;;;;;;4164532;28;20053;-87
2020/12/24 02:10:54;;;;;;;0.10;0.10;;;11.30;97.20;;;;;;4148056;28;20050;-87
2020/12/24 02:12:55;;;;;;;0.10;0.10;;;11.30;97.10;;;;;;4148993;28;20054;-87
2020/12/24 02:14:56;;;;;;;0.20;0.20;;;11.30;94.20;;;;;;4133006;28;20057;-87
2020/12/24 02:16:58;;;;;;;0.10;0.10;;;11.30;94.20;;;;;;4133144;28;20450;-87
2020/12/24 02:19:08;;;;;;;0.10;0.10;;;11.30;93.00;;;;;;4135934;28;20051;-87
2020/12/24 02:21:10;;;;;;;0.10;0.10;;;11.30;93.40;;;;;;4148066;28;20065;-88
2020/12/24 02:23:11;;;;;;;0.10;0.10;;;11.30;92.00;;;;;;4133090;28;20054;-87
2020/12/24 02:25:13;;;;;;;0.10;0.10;;;11.30;91.60;;;;;;4161848;28;20612;-86
2020/12/24 02:27:14;;;;;;;0.10;0.10;;;11.40;91.20;;;;;;4119500;28;20051;-87
2020/12/24 02:29:15;;;;;;;0.10;0.10;;;11.30;91.80;;;;;;4171265;28;20053;-87
2020/12/24 02:31:17;;;;;;;0.30;0.30;;;11.30;91.20;;;;;;4121878;28;20053;-87
2020/12/24 02:33:18;;;;;;;0.22;0.22;;;11.30;91.30;;;;;;4134767;28;20069;-87
2020/12/24 02:35:19;;;;;;;0.10;0.10;;;11.30;91.80;;;;;;4132722;28;20050;-86
2020/12/24 02:37:24;;;;;;;0.10;0.10;;;11.30;91.30;;;;;;4145598;28;20058;-87
2020/12/24 02:39:25;;;;;;;0.10;0.10;;;11.30;90.80;;;;;;4163099;28;20473;-87
2020/12/24 02:41:26;;;;;;;0.28;0.28;;;11.40;90.00;;;;;;4116828;28;20051;-87
2020/12/24 02:43:28;;;;;;;0.10;0.10;;;11.40;90.50;;;;;;4137832;28;20132;-86
2020/12/24 02:45:29;;;;;;;0.30;0.30;;;11.40;90.30;;;;;;4148528;28;20076;-87
2020/12/24 02:47:30;;;;;;;0.10;0.10;;;11.40;89.90;;;;;;4128711;28;20054;-86
2020/12/24 02:49:31;;;;;;;0.10;0.10;;;11.30;90.40;;;;;;4148142;28;20464;-87
2020/12/24 02:51:33;;;;;;;0.50;0.30;;;11.40;87.40;;;;;;4121286;28;20053;-86
2020/12/24 02:53:34;;;;;;;0.10;0.10;;;11.30;86.60;;;;;;4132673;28;20054;-86
2020/12/24 02:55:35;;;;;;;0.52;0.45;;;11.30;86.40;;;;;;4148193;28;20144;-87
2020/12/24 02:57:37;;;;;;;0.10;0.10;;;11.20;84.00;;;;;;4147816;28;20050;-86
2020/12/24 02:59:41;;;;;;;0.10;0.10;;;11.30;86.50;;;;;;4148839;28;20050;-86
2020/12/24 03:01:42;;;;;;;0.20;0.20;;;11.30;84.70;;;;;;4159800;28;20054;-86
2020/12/24 03:03:44;;;;;;;0.52;0.52;;;11.30;85.50;;;;;;4131865;28;20057;-87
2020/12/24 03:05:45;;;;;;;0.10;0.10;;;11.30;84.40;;;;;;4148574;28;20053;-86
2020/12/24 03:07:49;;;;;;;0.10;0.10;;;11.20;85.20;;;;;;4130081;28;20053;-87
2020/12/24 03:09:51;;;;;;;0.73;0.73;;;11.20;85.90;;;;;;4120295;28;20056;-88
2020/12/24 03:11:52;;;;;;;0.10;0.10;;;11.30;86.50;;;;;;4148207;28;20049;-88
2020/12/24 03:13:53;;;;;;;0.20;0.10;;;11.30;85.90;;;;;;4156436;28;20058;-86
2020/12/24 03:15:55;;;;;;;0.68;0.43;;;11.20;88.30;;;;;;4158581;28;20055;-87
2020/12/24 03:17:56;;;;;;;0.10;0.10;;;11.20;89.20;;;;;;4131645;28;20130;-87
2020/12/24 03:19:57;;;;;;;0.10;0.10;;;11.20;90.20;;;;;;4186503;28;20061;-87
2020/12/24 03:21:58;;;;;;;0.52;0.10;;;11.20;90.20;;;;;;4153124;28;20046;-87
2020/12/24 03:24:00;;;;;;;0.10;0.10;;;11.20;91.20;;;;;;4147829;28;20057;-87
2020/12/24 03:26:01;;;;;;;0.10;0.10;;;11.20;91.60;;;;;;4147575;28;20058;-86
2020/12/24 03:28:02;;;;;;;0.17;0.17;;;11.20;92.00;;;;;;4144689;28;20038;-88
2020/12/24 03:30:04;;;;;;;0.10;0.10;;;11.20;92.40;;;;;;4132733;28;20054;-87
2020/12/24 03:32:06;;;;;;;0.10;0.10;;;11.20;92.40;;;;;;4145282;28;20096;-87
2020/12/24 03:34:08;;;;;;;0.10;0.10;;;11.20;92.60;;;;;;4180098;28;20075;-87
2020/12/24 03:36:09;;;;;;;0.15;0.15;;;11.20;92.00;;;;;;4148252;28;20050;-87
2020/12/24 03:38:10;;;;;;;0.65;0.65;;;11.20;91.90;;;;;;4168882;28;20529;-87
2020/12/24 03:40:12;;;;;;;0.20;0.20;;;11.20;91.70;;;;;;4188698;28;20131;-87
2020/12/24 03:42:13;;;;;;;0.10;0.10;;;11.20;91.70;;;;;;4149279;28;20524;-87
2020/12/24 03:44:14;;;;;;;0.65;0.65;;;11.20;91.50;;;;;;4180700;28;20220;-86
2020/12/24 03:46:16;;;;;;;0.17;0.17;;;11.20;91.30;;;;;;4156911;28;20045;-87
2020/12/24 03:48:17;;;;;;;0.20;0.13;;;11.20;91.50;;;;;;4163733;28;20049;-87
2020/12/24 03:50:18;;;;;;;0.10;0.10;;;11.20;91.30;;;;;;4148027;28;20053;-87
2020/12/24 03:52:19;;;;;;;0.10;0.10;;;11.10;91.20;;;;;;4139728;28;20046;-86
2020/12/24 03:54:21;;;;;;;0.10;0.10;;;11.20;90.60;;;;;;4162381;28;20125;-87
2020/12/24 03:56:22;;;;;;;0.10;0.10;;;11.10;90.90;;;;;;4147302;28;20057;-87
2020/12/24 03:58:23;;;;;;;0.43;0.43;;;11.20;90.80;;;;;;4147200;28;20049;-86
2020/12/24 04:00:24;;;;;;;0.10;0.10;;;11.20;90.60;;;;;;4151159;28;20053;-87
2020/12/24 04:02:26;;;;;;;0.10;0.10;;;11.20;90.10;;;;;;4143385;28;20046;-86
2020/12/24 04:04:27;;;;;;;0.43;0.20;;;11.20;90.00;;;;;;4162256;28;20544;-86
2020/12/24 04:06:28;;;;;;;0.10;0.10;;;11.10;89.60;;;;;;4147128;28;20132;-87
2020/12/24 04:08:30;;;;;;;0.73;0.20;;;11.10;89.90;;;;;;4147496;28;20054;-87
2020/12/24 04:10:32;;;;;;;0.10;0.10;;;11.20;89.50;;;;;;4163004;28;20426;-86
2020/12/24 04:12:33;;;;;;;0.10;0.10;;;11.10;89.00;;;;;;4166123;28;20056;-86
2020/12/24 04:14:34;;;;;;;0.10;0.10;;;11.10;89.00;;;;;;4179844;28;20521;-86
2020/12/24 04:16:36;;;;;;;0.20;0.20;;;11.10;90.30;;;;;;4143219;28;20064;-86
2020/12/24 04:18:38;;;;;;;0.10;0.10;;;11.10;88.90;;;;;;4163135;28;20048;-87
2020/12/24 04:20:39;;;;;;;3.10;0.40;;;11.10;89.80;;;;;;4143442;28;20431;-87
2020/12/24 04:22:40;;;;;;;0.10;0.10;;;11.10;88.60;;;;;;4160811;28;20490;-87
2020/12/24 04:24:41;;;;;;;0.20;0.20;;;11.10;87.00;;;;;;4130671;28;20054;-86
2020/12/24 04:26:43;;;;;;;0.10;0.10;;;11.00;87.30;;;;;;4131068;28;20138;-87
2020/12/24 04:28:44;;;;;;;0.10;0.10;;;11.00;87.40;;;;;;4129446;28;20062;-87
2020/12/24 04:30:45;;;;;;;0.10;0.10;;;11.00;86.30;;;;;;4130491;28;20048;-86
2020/12/24 04:32:47;;;;;;;0.10;0.10;;;11.00;85.70;;;;;;4131395;28;20514;-87
2020/12/24 04:34:48;;;;;;;0.10;0.10;;;11.00;86.20;;;;;;4130555;28;20050;-87
2020/12/24 04:36:50;;;;;;;0.15;0.15;;;11.00;85.50;;;;;;4130523;28;20120;-88
2020/12/24 04:38:51;;;;;;;0.10;0.10;;;11.00;86.10;;;;;;4131235;28;20072;-87
2020/12/24 04:40:52;;;;;;;0.10;0.10;;;11.00;85.00;;;;;;4149284;28;20222;-87
2020/12/24 04:42:53;;;;;;;0.10;0.10;;;11.00;84.80;;;;;;4121834;28;20056;-87
2020/12/24 04:44:55;;;;;;;0.10;0.10;;;11.00;85.30;;;;;;4130761;28;20056;-88
2020/12/24 04:46:56;;;;;;;10.32;0.30;;;11.00;84.30;;;;;;4152344;28;20057;-87
2020/12/24 04:48:58;;;;;;;0.10;0.10;;;11.00;83.60;;;;;;4154599;28;20053;-87
2020/12/24 04:51:00;;;;;;;1.10;0.80;;;11.00;83.30;;;;;;4130688;28;20070;-88
2020/12/24 04:53:02;;;;;;;0.10;0.10;;;11.00;82.40;;;;;;4146089;28;20140;-87
2020/12/24 04:55:04;;;;;;;0.20;0.20;;;11.00;82.50;;;;;;4145211;28;20513;-88
2020/12/24 04:57:07;;;;;;;0.10;0.10;;;11.00;82.70;;;;;;4141815;28;20520;-87
2020/12/24 04:59:08;;;;;;;0.45;0.10;;;11.00;82.40;;;;;;4142864;28;20072;-87
2020/12/24 05:01:14;;;;;;;0.10;0.10;;;11.00;82.20;;;;;;4125710;28;20055;-87
2020/12/24 05:03:15;;;;;;;;;;;11.00;81.90;;;;;;4130019;28;20054;-88
2020/12/24 05:05:17;;;;;;;0.10;0.10;;;11.00;82.70;;;;;;4146579;28;20036;-86
2020/12/24 05:07:18;;;;;;;0.10;0.10;;;10.90;82.40;;;;;;4131831;28;20061;-88
2020/12/24 05:09:20;;;;;;;3.83;0.30;;;10.90;83.30;;;;;;4128643;28;20129;-87
2020/12/24 05:11:28;;;;;;;0.10;0.10;;;10.90;84.60;;;;;;4165670;28;20504;-87
2020/12/24 05:13:29;;;;;;;0.10;0.10;;;10.90;85.40;;;;;;4150868;28;20066;-87
2020/12/24 05:15:31;;;;;;;0.10;0.10;;;10.90;85.60;;;;;;4128360;28;20281;-87
2020/12/24 05:17:32;;;;;;;0.20;0.20;;;10.90;86.40;;;;;;4129045;28;20062;-88
2020/12/24 05:19:47;;;;;;;0.10;0.10;;;10.90;85.60;;;;;;4128244;28;20069;-88
2020/12/24 05:21:48;;;;;;;0.20;0.20;;;10.90;86.00;;;;;;4167159;28;20053;-87
2020/12/24 05:23:50;;;;;;;0.10;0.10;;;10.80;86.60;;;;;;4181685;28;20045;-88
2020/12/24 05:25:51;;;;;;;0.55;0.50;;;10.80;86.10;;;;;;4143359;28;20056;-88
2020/12/24 05:27:58;;;;;;;0.20;0.20;;;10.80;86.50;;;;;;4180915;28;20135;-88
2020/12/24 05:29:59;;;;;;;0.10;0.10;;;10.80;86.60;;;;;;4144772;28;20045;-86
2020/12/24 05:32:00;;;;;;;0.10;0.10;;;10.80;86.40;;;;;;4197026;28;20147;-87
2020/12/24 05:34:02;;;;;;;0.10;0.10;;;10.80;85.70;;;;;;4161103;28;20136;-88
2020/12/24 05:36:15;;;;;;;0.10;0.10;;;10.80;86.80;;;;;;4189514;28;20139;-88
2020/12/24 05:38:31;;;;;;;0.10;0.10;;;10.80;86.80;;;;;;4176743;28;20131;-87
2020/12/24 05:40:32;;;;;;;0.10;0.10;;;10.70;86.40;;;;;;4144202;28;20068;-88
2020/12/24 05:42:46;;;;;;;0.20;0.20;;;10.70;86.80;;;;;;4182554;28;20053;-88
2020/12/24 05:44:49;;;;;;;0.10;0.10;;;10.70;87.60;;;;;;4182324;28;20068;-86
2020/12/24 05:46:52;;;;;;;0.10;0.10;;;10.70;87.30;;;;;;4187364;28;20049;-88
2020/12/24 05:48:54;;;;;;;0.10;0.10;;;10.70;86.80;;;;;;4192389;28;20057;-87
2020/12/24 05:50:55;;;;;;;2.83;0.63;;;10.70;87.20;;;;;;4162869;28;20049;-88
2020/12/24 05:53:10;;;;;;;0.20;0.20;;;10.70;86.60;;;;;;4147931;28;20132;-87
2020/12/24 05:55:11;;;;;;;0.43;0.43;;;10.70;86.80;;;;;;4188949;28;20055;-89
2020/12/24 05:57:12;;;;;;;0.10;0.10;;;10.70;86.60;;;;;;4178631;28;20063;-87
2020/12/24 05:59:15;;;;;;;0.10;0.10;;;10.60;86.30;;;;;;4149266;28;20137;-87
2020/12/24 06:01:16;;;;;;;0.10;0.10;;;10.60;85.80;;;;;;4188333;28;20069;-88
2020/12/24 06:03:19;;;;;;;0.22;0.22;;;10.60;86.50;;;;;;4176595;28;20067;-88
2020/12/24 06:05:20;;;;;;;0.10;0.10;;;10.60;85.40;;;;;;4148459;28;20506;-88
2020/12/24 06:07:22;;;;;;;0.10;0.10;;;10.70;84.40;;;;;;4161019;28;20045;-88
2020/12/24 06:09:23;;;;;;;0.10;0.10;;;10.70;84.50;;;;;;4178555;28;20060;-88
2020/12/24 06:11:27;;;;;;;0.10;0.10;;;10.70;84.70;;;;;;4181878;28;20049;-87
2020/12/24 06:13:39;;;;;;;0.10;0.10;;;10.70;84.10;;;;;;4162050;28;20042;-87
2020/12/24 06:15:45;;;;;;;0.20;0.10;;;10.70;83.80;;;;;;4148910;28;20125;-87
2020/12/24 06:17:47;;;;;;;;;;;10.70;84.50;;;;;;4166170;28;20049;-87
2020/12/24 06:19:48;;;;;;;1.20;0.22;;;10.70;83.40;;;;;;4164421;28;19925;-87
2020/12/24 06:21:52;;;;;;;0.10;0.10;;;10.70;83.00;;;;;;4134882;28;20070;-87
2020/12/24 06:24:00;;;;;;;0.30;0.30;;;10.70;82.80;;;;;;4148562;28;20058;-86
2020/12/24 06:26:03;;;;;;;0.10;0.10;;;10.70;81.10;;;;;;4177283;28;20075;-87
2020/12/24 06:28:05;;;;;;;0.10;0.10;;;10.70;82.40;;;;;;4157201;28;20046;-88
2020/12/24 06:30:07;;;;;;;0.17;0.17;;;10.70;83.10;;;;;;4164933;28;20508;-88
2020/12/24 06:32:15;;;;;;;0.20;0.20;;;10.70;83.10;;;;;;4163845;28;20107;-88
2020/12/24 06:34:26;;;;;;;0.10;0.10;;;10.60;82.80;;;;;;4164272;28;20493;-88
2020/12/24 06:36:34;;;;;;;0.10;0.10;;;10.60;82.70;;;;;;4156854;28;20073;-88
2020/12/24 06:38:46;;;;;;;0.13;0.13;;;10.60;83.10;;;;;;4164830;28;20125;-88
2020/12/24 06:40:47;;;;;;;0.50;0.50;;;10.50;84.00;;;;;;4163348;28;20510;-85
2020/12/24 06:42:51;;;;;;;0.30;0.30;;;10.50;84.40;;;;;;4162560;28;20046;-85
2020/12/24 06:44:52;;;;;;;0.20;0.20;;;10.50;84.50;;;;;;4163666;28;20056;-86
2020/12/24 06:46:57;;;;;;;0.20;0.20;;;10.50;84.00;;;;;;4188003;28;20520;-86
2020/12/24 06:49:03;;;;;;;0.75;0.75;;;10.50;83.60;;;;;;4170462;28;20049;-87
2020/12/24 06:51:05;;;;;;;0.15;0.15;;;10.50;83.30;;;;;;4163320;28;20124;-88
2020/12/24 06:53:34;;;;;;;1.15;0.43;;;10.50;83.60;;;;;;4163958;28;20067;-88
2020/12/24 06:55:35;;;;;;;0.45;0.45;;;10.50;83.80;;;;;;4196105;28;20048;-86
2020/12/24 06:57:37;;;;;;;0.10;0.10;;;10.40;82.90;;;;;;4161076;28;20082;-87
2020/12/24 06:59:38;;;;;;;0.20;0.20;;;10.40;83.10;;;;;;4161920;28;20045;-87
2020/12/24 07:01:39;;;;;;;0.10;0.10;;;10.40;83.70;;;;;;4179038;28;20049;-88
2020/12/24 07:03:41;;;;;;;0.30;0.30;;;10.30;83.90;;;;;;4148116;28;20041;-87
2020/12/24 07:05:43;;;;;;;0.80;0.17;;;10.30;83.90;;;;;;4148092;28;20104;-88
2020/12/24 07:07:45;;;;;;;0.10;0.10;;;10.30;83.70;;;;;;4195480;28;20052;-87
2020/12/24 07:09:46;;;;;;;0.40;0.40;;;10.30;83.60;;;;;;4139746;28;20077;-89
2020/12/24 07:11:49;;;;;;;1.75;0.52;;;10.30;83.40;;;;;;4148455;28;20077;-87
2020/12/24 07:13:53;;;;;;;0.55;0.30;;;10.20;82.70;;;;;;4144596;28;20076;-85
2020/12/24 07:15:54;;;;;;;0.10;0.10;;;10.20;82.60;;;;;;4172917;28;20383;-86
2020/12/24 07:17:55;;;;;;;0.50;0.50;;;10.20;82.60;;;;;;4196771;28;20389;-85
2020/12/24 07:19:57;;;;;;;0.13;0.13;;;10.20;82.20;;;;;;4178806;28;20405;-86
2020/12/24 07:21:59;;;;;;;0.20;0.20;;;10.10;82.80;;;;;;4201426;28;20084;-86
2020/12/24 07:24:00;;;;;;;0.20;0.20;;;10.10;82.50;;;;;;4163946;28;20049;-86
2020/12/24 07:26:03;;;;;;;2.83;1.65;;;10.10;82.10;;;;;;4163115;28;20060;-86
2020/12/24 07:28:13;;;;;;;0.10;0.10;;;10.10;82.60;;;;;;4158904;28;20141;-84
2020/12/24 07:30:14;;;;;;;0.20;0.20;;;10.10;82.30;;;;;;4161026;28;20062;-94
2020/12/24 07:32:16;;;;;;;0.10;0.10;;;10.10;81.80;;;;;;4154481;28;20054;-85
2020/12/24 07:34:31;;;;;;;0.20;0.20;;;10.00;82.70;;;;;;4155525;28;20136;-86
2020/12/24 07:36:32;;;;;;;0.10;0.10;;;10.10;82.20;;;;;;4172391;28;20045;-90
2020/12/24 07:38:33;;;;;;;0.20;0.20;;;10.00;82.30;;;;;;4169922;28;20128;-87
2020/12/24 07:40:35;;;;;;;0.50;0.32;;;10.00;82.90;;;;;;4168669;28;20064;-87
2020/12/24 07:42:36;;;;;;;0.52;0.30;;;10.00;82.50;;;;;;4171616;28;20541;-87
2020/12/24 07:44:37;;;;;;;0.38;0.38;;;10.00;82.70;;;;;;4179858;28;20111;-87
2020/12/24 07:46:39;;;;;;;1.10;0.80;;;10.00;83.50;;;;;;4207690;28;20055;-87
2020/12/24 07:48:40;;;;;;;0.20;0.20;;;10.00;83.20;;;;;;4169614;28;20051;-90
2020/12/24 07:50:41;;;;;;;0.15;0.15;;;9.90;82.70;;;;;;4164503;28;20069;-88
2020/12/24 07:52:46;;;;;;;0.20;0.20;;;9.90;82.60;;;;;;4200366;28;20024;-87
2020/12/24 07:54:47;;;;;;;0.17;0.17;;;9.90;82.70;;;;;;4212369;28;20076;-85
2020/12/24 07:56:48;;;;;;;0.30;0.25;;;9.90;83.30;;;;;;4199536;28;20104;-83
2020/12/24 07:59:02;;;;;;;1.23;1.13;;;9.80;82.30;;;;;;4179417;28;20113;-90
2020/12/24 08:01:04;;;;;;;0.20;0.20;;;9.90;82.20;;;;;;4162913;28;20041;-89
2020/12/24 08:03:07;;;;;;;1.00;1.00;;;9.80;82.50;;;;;;4188692;28;20088;-88
2020/12/24 08:05:08;;;;;;;0.30;0.30;;;9.90;82.70;;;;;;4176078;28;20049;-88
2020/12/24 08:07:09;;;;;;;0.20;0.20;;;9.80;82.70;;;;;;4179612;28;20048;-88
2020/12/24 08:09:15;;;;;;;0.40;0.40;;;9.80;82.70;;;;;;4151491;28;20046;-89
2020/12/24 08:11:16;;;;;;;0.63;0.63;;;9.80;82.60;;;;;;4189611;28;20044;-87
2020/12/24 08:13:20;;;;;;;0.10;0.10;;;9.80;81.30;;;;;;4177528;28;20049;-84
2020/12/24 08:15:21;;;;;;;0.20;0.20;;;9.80;80.90;;;;;;4174938;28;20472;-85
2020/12/24 08:17:49;;;;;;;0.10;0.10;;;9.90;80.30;;;;;;4175286;28;20041;-87
2020/12/24 08:20:06;;;;;;;0.10;0.10;;;9.90;80.80;;;;;;4168887;28;20037;-87
2020/12/24 08:22:18;;;;;;;0.85;0.85;;;9.90;80.40;;;;;;4142094;28;20049;-84
2020/12/24 08:24:19;;;;;;;1.75;0.30;;;9.90;81.40;;;;;;4158680;28;20048;-90
2020/12/24 08:26:20;;;;;;;0.20;0.20;;;9.90;81.30;;;;;;4135275;28;20391;-89
2020/12/24 08:28:23;;;;;;;0.10;0.10;;;10.00;80.50;;;;;;4157106;28;20506;-88
2020/12/24 08:30:26;;;;;;;0.22;0.22;;;10.00;80.80;;;;;;4154398;28;20050;-83
2020/12/24 08:32:28;;;;;;;0.10;0.10;;;10.00;79.70;;;;;;4167792;28;20041;-84
2020/12/24 08:34:29;;;;;;;0.47;0.40;;;10.10;80.30;;;;;;4161518;28;20133;-87
2020/12/24 08:36:30;;;;;;;6.00;0.45;;;10.10;79.60;;;;;;4143173;28;20042;-82
2020/12/24 08:38:32;;;;;;;3.13;1.02;;;10.10;80.00;;;;;;4158132;28;20058;-83
2020/12/24 08:40:33;;;;;;;0.20;0.20;;;10.10;79.90;;;;;;4156494;28;20513;-82
2020/12/24 08:42:34;;;;;;;0.15;0.15;;;10.10;80.50;;;;;;4152153;28;20136;-82
2020/12/24 08:44:36;;;;;;;0.10;0.10;;;10.10;80.30;;;;;;4164347;28;20594;-83
2020/12/24 08:46:37;;;;;;;0.10;0.10;;;10.20;80.20;;;;;;4128320;28;20555;-82
2020/12/24 08:48:38;;;;;;;0.10;0.10;;;10.20;79.20;;;;;;4158871;28;20052;-83
2020/12/24 08:50:40;;;;;;;0.25;0.25;;;10.30;79.20;;;;;;4127778;28;20514;-82
2020/12/24 08:52:43;;;;;;;0.20;0.20;;;10.30;79.70;;;;;;4145860;28;20046;-82
2020/12/24 08:54:57;;;;;;;3.47;1.15;;;10.30;79.90;;;;;;4149567;28;20462;-83
2020/12/24 08:56:59;;;;;;;0.22;0.20;;;10.40;79.20;;;;;;4146300;28;20576;-82
2020/12/24 08:59:00;;;;;;;0.20;0.20;;;10.40;78.90;;;;;;4145902;28;20057;-83
2020/12/24 09:01:07;;;;;;;0.22;0.22;;;10.40;79.50;;;;;;4158130;28;20049;-82
2020/12/24 09:03:24;;;;;;;0.80;0.20;;;10.50;78.10;;;;;;4147505;28;20442;-82
2020/12/24 09:05:25;;;;;;;0.75;0.20;;;10.50;78.70;;;;;;4146737;28;20061;-83
2020/12/24 09:07:35;;;;;;;0.13;0.13;;;10.50;77.50;;;;;;4151126;28;20057;-82
2020/12/24 09:09:36;;;;;;;1.00;0.30;;;10.50;77.70;;;;;;4132545;28;20069;-83
2020/12/24 09:11:37;;;;;;;0.20;0.20;;;10.50;77.80;;;;;;4143700;28;20058;-82
2020/12/24 09:13:38;;;;;;;0.10;0.10;;;10.50;78.10;;;;;;4155759;28;20053;-83
2020/12/24 09:15:39;;;;;;;0.20;0.20;;;10.50;77.60;;;;;;4141933;28;20054;-83
2020/12/24 09:17:51;;;;;;;0.35;0.35;;;10.50;76.80;;;;;;4144319;28;20050;-82
2020/12/24 09:20:04;;;;;;;0.65;0.65;;;10.50;77.40;;;;;;4127833;28;20058;-83
2020/12/24 09:22:08;;;;;;;1.30;1.10;;;10.60;77.30;;;;;;4161550;28;20144;-81
2020/12/24 09:24:12;;;;;;;0.32;0.30;;;10.50;77.10;;;;;;4163934;28;20056;-82
2020/12/24 09:26:13;;;;;;;0.20;0.20;;;10.50;76.50;;;;;;4148977;28;20129;-81
2020/12/24 09:28:19;;;;;;;0.10;0.10;;;10.50;77.40;;;;;;4157876;28;20055;-81
2020/12/24 09:30:21;;;;;;;0.20;0.20;;;10.50;77.70;;;;;;4148588;28;20042;-80
2020/12/24 09:32:22;;;;;;;0.80;0.43;;;10.50;77.40;;;;;;4166186;28;20607;-80
2020/12/24 09:34:24;;;;;;;0.70;0.30;;;10.60;77.10;;;;;;4161838;28;20041;-80
2020/12/24 09:36:25;;;;;;;0.25;0.20;;;10.60;76.90;;;;;;4196443;28;20049;-80
2020/12/24 09:38:26;;;;;;;0.10;0.10;;;10.60;77.40;;;;;;4162425;28;20132;-81
2020/12/24 09:40:27;;;;;;;0.10;0.10;;;10.60;76.80;;;;;;4163319;28;20053;-80
2020/12/24 09:42:28;;;;;;;0.10;0.10;;;10.60;75.90;;;;;;4147241;28;20057;-81
2020/12/24 09:44:30;;;;;;;0.20;0.20;;;10.70;74.80;;;;;;4149251;28;20061;-80
2020/12/24 09:46:31;;;;;;;0.55;0.28;;;10.70;76.30;;;;;;4161587;28;20081;-80
2020/12/24 09:48:32;;;;;;;0.20;0.20;;;10.70;76.90;;;;;;4151771;28;20128;-81
2020/12/24 09:50:37;;;;;;;0.65;0.30;;;10.70;76.20;;;;;;4132434;28;20068;-81
2020/12/24 09:52:39;;;;;;;0.40;0.40;;;10.70;76.60;;;;;;4189020;28;20049;-81
2020/12/24 09:54:40;;;;;;;0.32;0.25;;;10.70;76.20;;;;;;4162923;28;20056;-81
2020/12/24 09:56:41;;;;;;;0.20;0.20;;;10.80;75.90;;;;;;4132529;28;20054;-83
2020/12/24 09:58:44;;;;;;;0.20;0.20;;;10.80;76.10;;;;;;4160685;28;20056;-83
2020/12/24 10:00:45;;;;;;;2.83;0.40;;;10.80;76.10;;;;;;4163112;28;20041;-83
2020/12/24 10:02:46;;;;;;;3.92;0.38;;;10.70;75.10;;;;;;4165851;28;20087;-82
2020/12/24 10:04:47;;;;;;;0.40;0.40;;;10.70;75.60;;;;;;4162987;28;20068;-83
2020/12/24 10:06:49;;;;;;;0.17;0.17;;;10.70;76.30;;;;;;4162934;28;20507;-83
2020/12/24 10:08:50;;;;;;;0.40;0.40;;;10.60;75.80;;;;;;4132519;28;20116;-82
2020/12/24 10:10:51;;;;;;;0.35;0.35;;;10.70;76.90;;;;;;4158159;28;20050;-82
2020/12/24 10:12:53;;;;;;;0.20;0.20;;;10.70;77.10;;;;;;4174343;28;20064;-83
2020/12/24 10:14:54;;;;;;;0.20;0.20;;;10.70;76.60;;;;;;4164341;28;20444;-83
2020/12/24 10:16:55;;;;;;;3.88;1.15;;;10.70;75.80;;;;;;4130091;28;20054;-83
2020/12/24 10:18:57;;;;;;;0.35;0.28;;;10.80;77.70;;;;;;4159509;28;20519;-88
2020/12/24 10:20:58;;;;;;;0.20;0.20;;;10.70;77.30;;;;;;4157673;28;20540;-88
2020/12/24 10:22:59;;;;;;;0.10;0.10;;;10.80;76.60;;;;;;4162629;28;20136;-85
2020/12/24 10:25:00;;;;;;;0.70;0.40;;;10.70;77.50;;;;;;4163023;28;20045;-85
2020/12/24 10:27:02;;;;;;;0.10;0.10;;;10.80;76.60;;;;;;4125264;28;20046;-85
2020/12/24 10:29:04;;;;;;;0.15;0.15;;;10.70;76.20;;;;;;4152453;28;20048;-84
2020/12/24 10:31:06;;;;;;;0.30;0.30;;;10.80;76.60;;;;;;4160062;28;20064;-87
2020/12/24 10:33:07;;;;;;;0.50;0.30;;;10.80;75.40;;;;;;4127928;28;20053;-85
2020/12/24 10:35:08;;;;;;;0.95;0.43;;;10.80;75.50;;;;;;4170616;28;20045;-86
2020/12/24 10:37:10;;;;;;;0.35;0.30;;;10.80;75.50;;;;;;4169612;28;20051;-87
2020/12/24 10:39:11;;;;;;;0.70;0.25;;;10.80;75.30;;;;;;4130168;28;20577;-85